Time;durP1;ratioP1;P1;durP2;ratioP2;P2;SDS_P1;SDS_P2;PMS_P1;PMS_P2;Temp;Humidity;BMP_temperature;BMP_pressure;BME280_temperature;BME280_humidity;BME280_pressure;Samples;Min_cycle;Max_cycle;Signal;HPM_P1;HPM_P2
2021/07/14 00:01:58;;;;;;;13.80;12.70;;;23.40;99.90;;;;;;5079087;28;20462;-74
2021/07/14 00:04:25;;;;;;;14.90;13.50;;;23.40;99.90;;;;;;5076863;28;20454;-74
2021/07/14 00:06:52;;;;;;;14.57;13.17;;;23.40;99.90;;;;;;5077536;28;20453;-74
2021/07/14 00:09:18;;;;;;;14.40;13.10;;;23.40;99.90;;;;;;5077862;28;20458;-74
2021/07/14 00:11:53;;;;;;;14.73;13.50;;;23.40;99.90;;;;;;5077118;28;20489;-74
2021/07/14 00:14:34;;;;;;;15.03;13.63;;;23.30;99.90;;;;;;5077549;28;20850;-74
2021/07/14 00:17:16;;;;;;;14.23;12.93;;;23.30;99.90;;;;;;5077032;28;20442;-73
2021/07/14 00:22:28;;;;;;;16.53;14.93;;;23.20;99.90;;;;;;5077109;28;20426;-74
2021/07/14 00:24:55;;;;;;;15.37;13.97;;;23.20;99.90;;;;;;5077072;28;20454;-74
2021/07/14 00:27:24;;;;;;;16.10;14.60;;;23.20;99.90;;;;;;5076925;28;20469;-74
2021/07/14 00:29:54;;;;;;;18.13;13.70;;;23.20;99.90;;;;;;5076994;28;20486;-75
2021/07/14 00:32:21;;;;;;;15.10;13.60;;;23.20;99.90;;;;;;5076755;28;20490;-75
2021/07/14 00:34:48;;;;;;;14.73;13.33;;;23.20;99.90;;;;;;5077103;28;20466;-75
2021/07/14 00:37:15;;;;;;;14.40;13.20;;;23.20;99.90;;;;;;5076709;28;20458;-75
2021/07/14 00:39:43;;;;;;;13.90;12.60;;;23.10;99.90;;;;;;5077015;28;20750;-74
2021/07/14 00:42:10;;;;;;;15.20;13.80;;;23.20;99.90;;;;;;5076643;28;20454;-74
2021/07/14 00:44:39;;;;;;;14.47;13.17;;;23.10;99.90;;;;;;5077579;28;20455;-75
2021/07/14 00:47:06;;;;;;;14.70;13.40;;;23.10;99.90;;;;;;5078585;28;20486;-74
2021/07/14 00:49:34;;;;;;;14.80;13.40;;;23.00;99.90;;;;;;5078056;28;20458;-75
2021/07/14 00:52:01;;;;;;;14.23;13.00;;;23.00;99.90;;;;;;5076767;28;20535;-75
2021/07/14 00:54:28;;;;;;;14.53;13.07;;;22.90;99.90;;;;;;5077048;28;20454;-75
2021/07/14 00:56:58;;;;;;;14.23;12.93;;;22.90;99.90;;;;;;5077507;28;20525;-75
2021/07/14 00:59:24;;;;;;;14.77;13.23;;;22.90;99.90;;;;;;5076894;28;20458;-75
2021/07/14 01:01:53;;;;;;;13.90;12.40;;;22.80;99.90;;;;;;5076928;28;20476;-75
2021/07/14 01:04:27;;;;;;;14.73;13.30;;;22.80;99.90;;;;;;5076875;28;20458;-75
2021/07/14 01:06:57;;;;;;;17.80;13.57;;;22.80;99.90;;;;;;5076572;28;20453;-75
2021/07/14 01:09:28;;;;;;;16.10;14.07;;;22.70;99.90;;;;;;5076659;28;20911;-75
2021/07/14 01:12:01;;;;;;;15.00;13.70;;;22.70;99.90;;;;;;5076277;28;20477;-74
2021/07/14 01:14:39;;;;;;;15.03;13.67;;;22.60;99.90;;;;;;5076375;28;20771;-75
2021/07/14 01:17:11;;;;;;;15.27;13.77;;;22.60;99.90;;;;;;5075987;28;20438;-75
2021/07/14 01:20:11;;;;;;;15.50;13.90;;;22.50;99.90;;;;;;5076338;28;20438;-75
2021/07/14 01:22:54;;;;;;;16.13;14.53;;;22.50;99.90;;;;;;5076056;28;20439;-75
2021/07/14 01:25:30;;;;;;;16.33;14.63;;;22.40;99.90;;;;;;5076166;28;20474;-75
2021/07/14 01:28:00;;;;;;;14.60;13.27;;;22.40;99.90;;;;;;5075804;28;20439;-75
2021/07/14 01:30:27;;;;;;;16.17;14.23;;;22.40;99.90;;;;;;5075950;28;20458;-75
2021/07/14 01:32:56;;;;;;;15.23;13.83;;;22.40;99.90;;;;;;5075496;28;20942;-75
2021/07/14 01:35:27;;;;;;;15.90;14.00;;;22.40;99.90;;;;;;5075732;28;20462;-75
2021/07/14 01:37:55;;;;;;;15.60;14.17;;;22.50;99.90;;;;;;5076223;28;20442;-75
2021/07/14 01:40:24;;;;;;;15.73;14.23;;;22.40;99.90;;;;;;5075781;28;20918;-74
2021/07/14 01:42:54;;;;;;;16.50;14.90;;;22.40;99.90;;;;;;5075456;28;20454;-75
2021/07/14 01:45:26;;;;;;;16.67;15.00;;;22.40;99.90;;;;;;5075259;28;20478;-75
2021/07/14 01:47:54;;;;;;;17.37;15.67;;;22.40;99.90;;;;;;5075586;28;20450;-75
2021/07/14 01:50:22;;;;;;;16.70;15.10;;;22.40;99.90;;;;;;5075517;28;20837;-74
2021/07/14 01:52:51;;;;;;;17.30;15.70;;;22.40;99.90;;;;;;5075052;28;20457;-75
2021/07/14 01:55:19;;;;;;;15.93;14.33;;;22.40;99.90;;;;;;5075493;28;20458;-75
2021/07/14 01:57:47;;;;;;;17.03;15.40;;;22.30;99.90;;;;;;5075140;28;20476;-75
2021/07/14 02:00:16;;;;;;;16.37;14.87;;;22.30;99.90;;;;;;5074936;28;20457;-75
2021/07/14 02:02:51;;;;;;;17.90;14.93;;;22.30;99.90;;;;;;5074920;28;20442;-75
2021/07/14 02:05:20;;;;;;;17.27;15.67;;;22.30;99.90;;;;;;5075357;28;20438;-75
2021/07/14 02:07:47;;;;;;;15.93;14.50;;;22.30;99.90;;;;;;5074894;28;20458;-75
2021/07/14 02:10:14;;;;;;;17.20;15.40;;;22.30;99.90;;;;;;5075493;28;20460;-75
2021/07/14 02:12:45;;;;;;;17.30;15.70;;;22.30;99.90;;;;;;5075344;28;20482;-75
2021/07/14 02:15:12;;;;;;;20.70;15.90;;;22.30;99.90;;;;;;5075362;28;20453;-75
2021/07/14 02:17:48;;;;;;;17.67;15.97;;;22.20;99.90;;;;;;5075543;28;20450;-75
2021/07/14 02:20:17;;;;;;;17.07;15.47;;;22.20;99.90;;;;;;5075976;28;20891;-75
2021/07/14 02:22:44;;;;;;;17.73;16.03;;;22.20;99.90;;;;;;5075159;28;20450;-75
2021/07/14 02:25:12;;;;;;;17.57;15.90;;;22.20;99.90;;;;;;5075264;28;20461;-74
2021/07/14 02:27:39;;;;;;;19.23;16.70;;;22.20;99.90;;;;;;5076611;28;20771;-75
2021/07/14 02:30:13;;;;;;;16.83;15.23;;;22.10;99.90;;;;;;5079767;28;20461;-75
2021/07/14 02:32:39;;;;;;;17.77;16.03;;;22.10;99.90;;;;;;5079385;28;20480;-75
2021/07/14 02:35:09;;;;;;;17.07;15.37;;;22.10;99.90;;;;;;5079467;28;20838;-74
2021/07/14 02:37:45;;;;;;;17.43;15.43;;;22.10;99.90;;;;;;5078783;28;20473;-75
2021/07/14 02:40:14;;;;;;;18.40;16.70;;;22.10;99.90;;;;;;5079266;28;20434;-75
2021/07/14 02:42:43;;;;;;;18.63;16.60;;;22.00;99.90;;;;;;5078893;28;20458;-75
2021/07/14 02:45:10;;;;;;;18.90;16.90;;;22.00;99.90;;;;;;5078837;28;20580;-75
2021/07/14 02:47:42;;;;;;;16.83;15.20;;;22.00;99.90;;;;;;5079730;28;20453;-75
2021/07/14 02:50:15;;;;;;;17.70;15.90;;;22.00;99.90;;;;;;5078943;28;20438;-75
2021/07/14 02:52:45;;;;;;;17.50;15.30;;;22.00;99.90;;;;;;5078775;28;20985;-75
2021/07/14 02:55:16;;;;;;;17.87;16.27;;;21.90;99.90;;;;;;5079720;28;20439;-74
2021/07/14 02:57:44;;;;;;;18.20;15.33;;;21.90;99.90;;;;;;5078924;28;20450;-75
2021/07/14 03:00:12;;;;;;;17.73;16.07;;;21.90;99.90;;;;;;5078713;28;20465;-75
2021/07/14 03:02:41;;;;;;;20.27;15.60;;;21.90;99.90;;;;;;5078606;28;20925;-75
2021/07/14 03:05:08;;;;;;;18.37;15.57;;;21.90;99.90;;;;;;5078862;28;20807;-75
2021/07/14 03:07:38;;;;;;;17.63;15.73;;;21.90;99.90;;;;;;5078203;28;20558;-75
2021/07/14 03:10:09;;;;;;;17.53;15.30;;;21.90;99.90;;;;;;5078181;28;20906;-75
2021/07/14 03:12:37;;;;;;;17.43;15.73;;;21.90;99.90;;;;;;5078475;28;20477;-75
2021/07/14 03:15:08;;;;;;;16.53;14.90;;;21.90;99.90;;;;;;5078194;28;20453;-75
2021/07/14 03:17:37;;;;;;;15.80;14.13;;;21.80;99.90;;;;;;5078663;28;20891;-75
2021/07/14 03:20:07;;;;;;;20.67;14.80;;;21.80;99.90;;;;;;5078731;28;20469;-75
2021/07/14 03:22:36;;;;;;;17.57;15.10;;;21.80;99.90;;;;;;5079393;28;20756;-75
2021/07/14 03:25:03;;;;;;;17.07;14.73;;;21.80;99.90;;;;;;5078285;28;20465;-75
2021/07/14 03:27:30;;;;;;;19.00;15.90;;;21.80;99.90;;;;;;5078186;28;20470;-75
2021/07/14 03:30:03;;;;;;;17.20;15.50;;;21.80;99.90;;;;;;5078406;28;20469;-74
2021/07/14 03:32:29;;;;;;;14.97;13.47;;;21.80;99.90;;;;;;5078607;28;20466;-74
2021/07/14 03:34:56;;;;;;;15.10;13.47;;;21.80;99.90;;;;;;5077890;28;20462;-75
2021/07/14 03:37:23;;;;;;;15.77;13.60;;;21.80;99.90;;;;;;5078092;28;20453;-75
2021/07/14 03:39:53;;;;;;;15.70;12.90;;;21.70;99.90;;;;;;5078033;28;20474;-74
2021/07/14 03:42:21;;;;;;;14.83;13.43;;;21.70;99.90;;;;;;5078078;28;20463;-75
2021/07/14 03:44:50;;;;;;;18.80;14.00;;;21.70;99.90;;;;;;5077832;28;20458;-76
2021/07/14 03:47:19;;;;;;;14.87;13.43;;;21.70;99.90;;;;;;5077850;28;20771;-75
2021/07/14 03:49:47;;;;;;;15.93;13.23;;;21.70;99.90;;;;;;5077711;28;20468;-74
2021/07/14 03:52:15;;;;;;;15.23;13.63;;;21.70;99.90;;;;;;5077832;28;20803;-74
2021/07/14 03:54:42;;;;;;;14.67;12.67;;;21.70;99.90;;;;;;5077977;28;20454;-74
2021/07/14 03:57:11;;;;;;;18.37;13.70;;;21.60;99.90;;;;;;5077432;28;20930;-74
2021/07/14 03:59:38;;;;;;;13.80;12.40;;;21.60;99.90;;;;;;5077712;28;20466;-74
2021/07/14 04:02:07;;;;;;;14.43;12.10;;;21.60;99.90;;;;;;5077607;28;20810;-74
2021/07/14 04:04:37;;;;;;;13.03;11.50;;;21.50;99.90;;;;;;5077359;28;20462;-74
2021/07/14 04:07:09;;;;;;;15.90;11.40;;;21.50;99.90;;;;;;5077536;28;20462;-74
2021/07/14 04:09:35;;;;;;;14.20;11.10;;;21.40;99.90;;;;;;5078535;28;20442;-74
2021/07/14 04:12:04;;;;;;;17.33;11.10;;;21.40;99.90;;;;;;5077516;28;20486;-74
2021/07/14 04:14:35;;;;;;;12.70;10.20;;;21.30;99.90;;;;;;5077677;28;20502;-74
2021/07/14 04:17:01;;;;;;;11.50;8.97;;;21.30;99.90;;;;;;5078555;28;20469;-74
2021/07/14 04:19:31;;;;;;;11.77;9.43;;;21.20;99.90;;;;;;5077556;28;20918;-74
2021/07/14 04:21:58;;;;;;;13.00;10.10;;;21.20;99.90;;;;;;5077056;28;20458;-74
2021/07/14 04:24:25;;;;;;;13.53;9.67;;;21.20;99.90;;;;;;5076914;28;20918;-75
2021/07/14 04:26:52;;;;;;;12.73;9.80;;;21.20;99.90;;;;;;5076276;28;20937;-74
2021/07/14 04:29:19;;;;;;;13.77;10.30;;;21.20;99.90;;;;;;5077100;28;20461;-74
2021/07/14 04:31:47;;;;;;;16.63;9.90;;;21.20;99.90;;;;;;5076762;28;20474;-74
2021/07/14 04:34:13;;;;;;;14.60;10.90;;;21.20;99.90;;;;;;5077050;28;20465;-74
2021/07/14 04:36:41;;;;;;;14.50;11.23;;;21.20;99.90;;;;;;5077001;28;20473;-75
2021/07/14 04:39:09;;;;;;;13.93;11.30;;;21.20;99.90;;;;;;5077194;28;20864;-75
2021/07/14 04:41:37;;;;;;;15.47;11.30;;;21.20;99.90;;;;;;5076956;28;20458;-75
2021/07/14 04:44:05;;;;;;;15.20;10.93;;;21.20;99.90;;;;;;5076456;28;20454;-75
2021/07/14 04:46:33;;;;;;;16.67;12.20;;;21.20;99.90;;;;;;5076058;28;20559;-75
2021/07/14 04:49:02;;;;;;;13.50;11.73;;;21.20;99.90;;;;;;5076323;28;20584;-74
2021/07/14 04:51:29;;;;;;;15.13;13.63;;;21.10;99.90;;;;;;5075952;28;20467;-74
2021/07/14 04:53:55;;;;;;;20.63;13.53;;;21.10;99.90;;;;;;5076056;28;20903;-74
2021/07/14 04:56:22;;;;;;;14.93;13.30;;;21.10;99.90;;;;;;5076415;28;20477;-75
2021/07/14 04:58:50;;;;;;;19.90;13.30;;;21.10;99.90;;;;;;5076250;28;20795;-74
2021/07/14 05:01:18;;;;;;;17.13;13.83;;;21.10;99.90;;;;;;5078843;28;20480;-75
2021/07/14 05:03:46;;;;;;;14.57;12.23;;;21.10;99.90;;;;;;5076240;28;20465;-74
2021/07/14 05:06:15;;;;;;;14.27;11.63;;;21.20;99.90;;;;;;5076418;28;20473;-74
2021/07/14 05:08:42;;;;;;;19.97;12.53;;;21.20;99.90;;;;;;5075981;28;20462;-74
2021/07/14 05:11:10;;;;;;;16.03;12.40;;;21.10;99.90;;;;;;5076639;28;20473;-74
2021/07/14 05:13:37;;;;;;;16.40;12.90;;;21.10;99.90;;;;;;5075793;28;20517;-74
2021/07/14 05:16:04;;;;;;;17.73;13.90;;;21.00;99.90;;;;;;5075663;28;20458;-74
2021/07/14 05:18:33;;;;;;;18.90;13.93;;;20.90;99.90;;;;;;5076516;28;20472;-75
2021/07/14 05:21:00;;;;;;;22.73;13.40;;;20.90;99.90;;;;;;5075464;28;20824;-75
2021/07/14 05:23:28;;;;;;;17.57;13.60;;;20.90;99.90;;;;;;5075579;28;20779;-75
2021/07/14 05:25:55;;;;;;;20.63;14.63;;;21.00;99.90;;;;;;5075622;28;20454;-74
2021/07/14 05:28:21;;;;;;;19.17;14.87;;;21.10;99.90;;;;;;5075441;28;20791;-74
2021/07/14 05:30:48;;;;;;;18.13;15.13;;;21.20;99.90;;;;;;5075254;28;20507;-74
2021/07/14 05:33:15;;;;;;;19.70;14.37;;;21.20;99.90;;;;;;5075334;28;20474;-74
2021/07/14 05:35:42;;;;;;;18.93;13.97;;;21.30;99.90;;;;;;5075524;28;20458;-74
2021/07/14 05:38:09;;;;;;;24.87;15.90;;;21.40;99.90;;;;;;5075394;28;20454;-74
2021/07/14 05:40:37;;;;;;;20.70;15.27;;;21.40;99.90;;;;;;5075149;28;20515;-74
2021/07/14 05:43:04;;;;;;;17.17;14.70;;;21.50;99.90;;;;;;5075301;28;20465;-74
2021/07/14 05:45:30;;;;;;;19.90;15.80;;;21.60;99.90;;;;;;5075289;28;20508;-75
2021/07/14 05:47:57;;;;;;;24.20;15.87;;;21.60;99.90;;;;;;5075378;28;20526;-74
2021/07/14 05:50:24;;;;;;;20.30;16.20;;;21.60;99.90;;;;;;5076587;28;20793;-74
2021/07/14 05:52:50;;;;;;;14.37;12.80;;;21.60;99.90;;;;;;5075230;28;20481;-75
2021/07/14 05:55:17;;;;;;;16.07;13.57;;;21.60;99.90;;;;;;5074869;28;20454;-75
2021/07/14 05:57:45;;;;;;;21.13;14.60;;;21.70;99.90;;;;;;5075152;28;20454;-74
2021/07/14 06:00:13;;;;;;;15.10;13.00;;;21.70;99.90;;;;;;5075388;28;20848;-75
2021/07/14 06:02:40;;;;;;;14.27;12.67;;;21.80;99.90;;;;;;5074419;28;20833;-74
2021/07/14 06:05:09;;;;;;;17.43;12.83;;;22.00;99.90;;;;;;5075408;28;20477;-74
2021/07/14 06:07:36;;;;;;;14.87;12.73;;;22.20;99.90;;;;;;5075442;28;20761;-74
2021/07/14 06:10:03;;;;;;;13.93;12.33;;;22.30;99.90;;;;;;5075313;28;20874;-74
2021/07/14 06:12:30;;;;;;;15.20;13.60;;;22.40;99.90;;;;;;5075710;28;20820;-74
2021/07/14 06:15:00;;;;;;;13.07;11.77;;;22.50;99.90;;;;;;5077229;28;20458;-74
2021/07/14 06:17:30;;;;;;;18.80;13.47;;;22.40;99.90;;;;;;5076008;28;20462;-74
2021/07/14 06:19:56;;;;;;;14.20;12.43;;;22.40;99.90;;;;;;5076258;28;20545;-74
2021/07/14 06:22:23;;;;;;;15.03;13.53;;;22.40;99.90;;;;;;5076084;28;20898;-73
2021/07/14 06:24:50;;;;;;;15.57;12.20;;;22.40;99.90;;;;;;5075004;28;20465;-73
2021/07/14 06:27:17;;;;;;;18.93;13.30;;;22.40;99.90;;;;;;5074984;28;20454;-75
2021/07/14 06:29:44;;;;;;;17.30;13.77;;;22.40;99.90;;;;;;5075120;28;20465;-74
2021/07/14 06:32:12;;;;;;;21.20;12.90;;;22.40;99.90;;;;;;5075282;28;20770;-73
2021/07/14 06:34:38;;;;;;;17.87;13.77;;;22.40;99.90;;;;;;5075652;28;20462;-74
2021/07/14 06:37:05;;;;;;;15.40;13.27;;;22.40;99.90;;;;;;5075461;28;20473;-74
2021/07/14 06:39:32;;;;;;;17.47;15.20;;;22.40;99.90;;;;;;5074907;28;20465;-73
2021/07/14 06:41:59;;;;;;;17.00;13.70;;;22.50;99.90;;;;;;5074805;28;20462;-73
2021/07/14 06:44:26;;;;;;;18.00;14.07;;;22.50;99.90;;;;;;5075039;28;20465;-73
2021/07/14 06:46:53;;;;;;;16.80;14.50;;;22.50;99.90;;;;;;5074588;28;20784;-74
2021/07/14 06:49:21;;;;;;;17.80;14.13;;;22.40;99.90;;;;;;5075049;28;20455;-73
2021/07/14 06:51:48;;;;;;;19.23;15.80;;;22.40;99.90;;;;;;5074807;28;20469;-73
2021/07/14 06:54:17;;;;;;;17.93;15.20;;;22.50;99.90;;;;;;5074914;28;20539;-74
2021/07/14 06:56:44;;;;;;;16.63;14.93;;;22.50;99.90;;;;;;5074480;28;20458;-73
2021/07/14 06:59:11;;;;;;;20.00;15.53;;;22.50;99.90;;;;;;5074298;28;20473;-73
2021/07/14 07:01:40;;;;;;;15.90;14.30;;;22.40;99.90;;;;;;5074603;28;20465;-75
2021/07/14 07:04:07;;;;;;;16.47;14.27;;;22.50;99.90;;;;;;5074919;28;20455;-73
2021/07/14 07:06:35;;;;;;;15.20;13.67;;;22.40;99.90;;;;;;5074693;28;20462;-74
2021/07/14 07:09:04;;;;;;;15.27;13.50;;;22.50;99.90;;;;;;5074419;28;20462;-71
2021/07/14 07:11:34;;;;;;;14.97;13.50;;;22.50;99.90;;;;;;5074004;28;20999;-71
2021/07/14 07:14:01;;;;;;;14.20;12.80;;;22.50;99.90;;;;;;5076879;28;20489;-71
2021/07/14 07:16:28;;;;;;;13.97;12.57;;;22.50;99.90;;;;;;5077574;28;20448;-71
2021/07/14 07:18:55;;;;;;;14.83;13.43;;;22.60;99.90;;;;;;5077920;28;20462;-71
2021/07/14 07:21:22;;;;;;;14.40;12.97;;;22.60;99.90;;;;;;5077936;28;20469;-71
2021/07/14 07:23:50;;;;;;;13.97;12.67;;;22.70;99.90;;;;;;5077768;28;20752;-71
2021/07/14 07:26:17;;;;;;;14.70;12.90;;;22.80;99.90;;;;;;5078155;28;20464;-70
2021/07/14 07:28:44;;;;;;;16.53;12.93;;;22.80;99.90;;;;;;5077463;28;20468;-71
2021/07/14 07:31:11;;;;;;;15.83;14.10;;;23.00;99.90;;;;;;5077696;28;20799;-71
2021/07/14 07:33:38;;;;;;;13.30;11.17;;;23.10;99.90;;;;;;5077752;28;20486;-71
2021/07/14 07:36:05;;;;;;;15.10;12.00;;;23.10;99.90;;;;;;5077776;28;20774;-71
2021/07/14 07:38:33;;;;;;;13.73;12.23;;;23.20;99.90;;;;;;5077523;28;20458;-71
2021/07/14 07:41:01;;;;;;;13.30;12.07;;;23.30;99.90;;;;;;5077259;28;20515;-71
2021/07/14 07:43:28;;;;;;;12.83;11.63;;;23.40;99.90;;;;;;5077593;28;20450;-71
2021/07/14 07:45:55;;;;;;;12.80;11.60;;;23.40;99.90;;;;;;5077569;28;20970;-71
2021/07/14 07:48:23;;;;;;;13.47;12.10;;;23.50;99.90;;;;;;5078008;28;20458;-71
2021/07/14 07:50:51;;;;;;;13.53;12.10;;;23.60;99.90;;;;;;5078375;28;20485;-71
2021/07/14 07:53:21;;;;;;;12.60;11.50;;;23.50;99.90;;;;;;5077579;28;20482;-71
2021/07/14 07:55:49;;;;;;;14.00;12.60;;;23.60;99.90;;;;;;5077896;28;20909;-71
2021/07/14 07:58:18;;;;;;;13.80;12.40;;;23.70;99.90;;;;;;5077368;28;20466;-71
2021/07/14 08:00:45;;;;;;;13.40;12.20;;;23.70;99.90;;;;;;5078259;28;20846;-71
2021/07/14 08:03:12;;;;;;;12.70;11.00;;;23.90;99.90;;;;;;5076762;28;20874;-71
2021/07/14 08:05:39;;;;;;;15.00;12.13;;;24.00;99.90;;;;;;5077357;28;20465;-71
2021/07/14 08:08:06;;;;;;;12.87;11.67;;;24.10;99.90;;;;;;5077643;28;20806;-71
2021/07/14 08:10:33;;;;;;;11.67;10.50;;;24.10;99.90;;;;;;5077315;28;20468;-71
2021/07/14 08:13:02;;;;;;;12.40;11.20;;;24.20;99.90;;;;;;5077125;28;20521;-71
2021/07/14 08:15:30;;;;;;;12.43;11.13;;;24.30;99.90;;;;;;5076758;28;20458;-71
2021/07/14 08:17:56;;;;;;;11.90;10.80;;;24.30;99.90;;;;;;5077097;28;20462;-71
2021/07/14 08:20:23;;;;;;;11.67;10.57;;;24.40;99.90;;;;;;5077137;28;20480;-71
2021/07/14 08:22:50;;;;;;;11.87;10.77;;;24.40;99.90;;;;;;5077442;28;20515;-71
2021/07/14 08:25:18;;;;;;;11.10;10.10;;;24.60;99.90;;;;;;5075982;28;20543;-71
2021/07/14 08:27:45;;;;;;;12.83;11.53;;;24.70;93.90;;;;;;5077194;28;20552;-71
2021/07/14 08:30:16;;;;;;;12.97;11.40;;;24.70;91.10;;;;;;5076971;28;20465;-71
2021/07/14 08:32:44;;;;;;;11.87;10.87;;;24.80;86.00;;;;;;5076915;28;20438;-71
2021/07/14 08:35:12;;;;;;;12.60;10.77;;;24.80;78.50;;;;;;5076440;28;20469;-71
2021/07/14 08:37:39;;;;;;;12.23;11.13;;;24.80;59.90;;;;;;5076473;28;20480;-71
2021/07/14 08:40:07;;;;;;;11.50;10.30;;;24.70;81.00;;;;;;5076611;28;20454;-71
2021/07/14 08:42:36;;;;;;;11.13;10.13;;;24.80;59.40;;;;;;5076222;28;20458;-71
2021/07/14 08:45:07;;;;;;;10.73;9.70;;;24.70;55.60;;;;;;5076386;28;20454;-71
2021/07/14 08:47:35;;;;;;;10.17;9.17;;;24.70;50.60;;;;;;5076111;28;20462;-71
2021/07/14 08:50:03;;;;;;;10.83;9.83;;;24.50;52.80;;;;;;5075965;28;20458;-71
2021/07/14 08:52:30;;;;;;;10.80;9.90;;;24.50;77.40;;;;;;5076410;28;20938;-71
2021/07/14 08:54:57;;;;;;;9.93;9.03;;;24.60;95.10;;;;;;5076169;28;20486;-71
2021/07/14 08:57:24;;;;;;;11.30;10.30;;;24.80;85.20;;;;;;5076155;28;20458;-73
2021/07/14 08:59:51;;;;;;;9.93;8.70;;;25.00;59.20;;;;;;5076058;28;20459;-71
2021/07/14 09:02:17;;;;;;;9.10;8.20;;;25.20;40.60;;;;;;5076051;28;20458;-71
2021/07/14 09:04:44;;;;;;;10.23;9.33;;;25.30;17.90;;;;;;5075881;28;20549;-71
2021/07/14 09:07:15;;;;;;;11.07;10.17;;;25.40;1.00;;;;;;5075377;28;20984;-71
2021/07/14 09:09:43;;;;;;;11.30;10.33;;;25.40;99.90;;;;;;5075781;28;20500;-71
2021/07/14 09:12:13;;;;;;;10.73;9.90;;;25.50;99.90;;;;;;5076838;28;20458;-71
2021/07/14 09:14:41;;;;;;;10.80;9.80;;;25.60;37.60;;;;;;5075741;28;20575;-71
2021/07/14 09:17:24;;;;;;;11.70;10.40;;;25.40;1.00;;;;;;5076169;28;20556;-71
2021/07/14 09:19:52;;;;;;;11.37;10.43;;;25.40;1.00;;;;;;5074152;28;20839;-71
2021/07/14 09:22:22;;;;;;;14.10;12.07;;;25.30;1.00;;;;;;5075570;28;20456;-71
2021/07/14 09:24:49;;;;;;;13.40;12.30;;;25.20;1.00;;;;;;5075428;28;20454;-71
2021/07/14 09:27:27;;;;;;;13.30;12.10;;;25.10;1.00;;;;;;5076066;28;20466;-72
2021/07/14 09:30:13;;;;;;;13.20;12.07;;;25.10;1.00;;;;;;5075670;28;20455;-70
2021/07/14 09:32:48;;;;;;;12.47;11.43;;;25.20;1.00;;;;;;5075707;28;20438;-69
2021/07/14 09:35:25;;;;;;;12.80;11.50;;;25.30;95.80;;;;;;5075499;28;20450;-70
2021/07/14 09:37:53;;;;;;;12.30;11.30;;;25.40;1.00;;;;;;5075275;28;20468;-70
2021/07/14 09:40:20;;;;;;;12.63;11.43;;;25.50;1.00;;;;;;5075562;28;20465;-71
2021/07/14 09:42:52;;;;;;;11.50;10.50;;;25.60;1.00;;;;;;5075442;28;20527;-70
2021/07/14 09:45:38;;;;;;;12.77;11.43;;;25.70;1.00;;;;;;5075213;28;20559;-70
2021/07/14 09:48:05;;;;;;;12.87;11.63;;;25.90;99.90;;;;;;5074681;28;20439;-70
2021/07/14 09:50:32;;;;;;;13.30;12.17;;;26.20;99.90;;;;;;5075640;28;20512;-69
2021/07/14 09:53:05;;;;;;;12.37;11.13;;;26.30;1.00;;;;;;5075246;28;20489;-71
2021/07/14 09:55:33;;;;;;;12.40;11.07;;;26.50;99.90;;;;;;5075659;28;20527;-71
2021/07/14 09:58:15;;;;;;;11.60;10.63;;;26.60;99.90;;;;;;5075137;28;20458;-71
2021/07/14 10:00:47;;;;;;;14.90;11.00;;;26.70;99.90;;;;;;5075575;28;20485;-70
2021/07/14 10:03:19;;;;;;;12.00;10.97;;;26.80;99.90;;;;;;5075305;28;20445;-69
2021/07/14 10:05:46;;;;;;;10.93;9.93;;;26.90;1.00;;;;;;5076347;28;20449;-70
2021/07/14 10:08:17;;;;;;;10.50;9.70;;;26.90;1.00;;;;;;5076022;28;20458;-69
2021/07/14 10:10:44;;;;;;;11.80;10.70;;;27.00;1.00;;;;;;5075450;28;20473;-71
2021/07/14 10:13:12;;;;;;;11.00;9.90;;;27.00;1.00;;;;;;5075640;28;20496;-70
2021/07/14 10:15:39;;;;;;;15.60;10.00;;;27.10;99.90;;;;;;5075449;28;20465;-70
2021/07/14 10:18:11;;;;;;;11.20;9.77;;;27.10;99.90;;;;;;5075662;28;20465;-70
2021/07/14 10:20:40;;;;;;;10.33;9.30;;;27.10;99.90;;;;;;5074904;28;20485;-70
2021/07/14 10:23:12;;;;;;;11.87;10.30;;;27.10;99.90;;;;;;5075222;28;20818;-69
2021/07/14 10:25:41;;;;;;;10.73;9.73;;;27.10;99.90;;;;;;5075220;28;20504;-70
2021/07/14 10:28:12;;;;;;;10.37;9.47;;;27.10;99.90;;;;;;5075131;28;20880;-70
2021/07/14 10:30:41;;;;;;;10.90;9.90;;;26.90;99.90;;;;;;5074992;28;20443;-70
2021/07/14 10:33:11;;;;;;;10.43;9.53;;;26.70;99.90;;;;;;5075112;28;20450;-70
2021/07/14 10:35:40;;;;;;;9.90;9.10;;;26.60;1.00;;;;;;5075026;28;20533;-69
2021/07/14 10:38:15;;;;;;;9.13;8.33;;;26.50;1.00;;;;;;5074622;28;20461;-70
2021/07/14 10:40:48;;;;;;;8.90;8.20;;;26.50;1.00;;;;;;5075230;28;20442;-71
2021/07/14 10:43:17;;;;;;;8.47;7.67;;;26.50;1.00;;;;;;5076244;28;20446;-71
2021/07/14 10:45:47;;;;;;;8.97;8.27;;;26.60;1.00;;;;;;5074875;28;20483;-70
2021/07/14 10:48:16;;;;;;;10.30;8.63;;;26.70;1.00;;;;;;5076202;28;20454;-71
2021/07/14 10:50:43;;;;;;;9.07;8.37;;;26.60;99.90;;;;;;5078736;28;20490;-70
2021/07/14 10:53:12;;;;;;;8.57;7.87;;;26.60;1.00;;;;;;5078855;28;20465;-70
2021/07/14 10:55:40;;;;;;;9.70;8.80;;;26.60;1.00;;;;;;5078633;28;20513;-70
2021/07/14 10:58:10;;;;;;;9.07;8.27;;;26.60;18.50;;;;;;5078881;28;20457;-70
2021/07/14 11:00:39;;;;;;;15.17;7.80;;;26.80;1.00;;;;;;5078788;28;20446;-70
2021/07/14 11:03:05;;;;;;;8.27;7.57;;;26.90;1.00;;;;;;5079348;28;20824;-70
2021/07/14 11:05:34;;;;;;;8.07;7.37;;;27.00;1.00;;;;;;5078669;28;20465;-70
2021/07/14 11:08:01;;;;;;;8.80;8.07;;;27.10;1.00;;;;;;5078699;28;20465;-71
2021/07/14 11:10:31;;;;;;;8.40;7.60;;;27.10;1.00;;;;;;5077907;28;20454;-71
2021/07/14 11:12:59;;;;;;;7.93;7.33;;;27.10;99.90;;;;;;5078480;28;20449;-70
2021/07/14 11:15:36;;;;;;;7.10;6.60;;;27.10;99.90;;;;;;5078148;28;20551;-70
2021/07/14 11:18:34;;;;;;;10.77;6.70;;;27.10;99.90;;;;;;5078428;28;20450;-70
2021/07/14 11:21:01;;;;;;;7.57;7.00;;;27.10;99.90;;;;;;5078731;28;20477;-70
2021/07/14 11:23:29;;;;;;;7.80;7.07;;;27.10;1.00;;;;;;5078174;28;20461;-71
2021/07/14 11:25:58;;;;;;;6.63;6.00;;;27.10;27.10;;;;;;5079397;28;20712;-70
2021/07/14 11:28:26;;;;;;;11.93;6.43;;;27.10;1.00;;;;;;5078229;28;20796;-71
2021/07/14 11:30:56;;;;;;;6.40;5.90;;;27.10;78.40;;;;;;5078413;28;20462;-71
2021/07/14 11:33:31;;;;;;;10.30;6.10;;;27.00;99.90;;;;;;5079954;28;20473;-71
2021/07/14 11:36:01;;;;;;;10.33;6.60;;;27.10;99.90;;;;;;5079873;28;20460;-71
2021/07/14 11:38:31;;;;;;;14.50;6.37;;;27.40;99.90;;;;;;5078954;28;20910;-70
2021/07/14 11:41:00;;;;;;;7.50;6.50;;;27.70;99.90;;;;;;5078409;28;20453;-70
2021/07/14 11:43:41;;;;;;;5.60;5.20;;;28.00;1.00;;;;;;5077876;28;20528;-71
2021/07/14 11:46:12;;;;;;;5.47;5.07;;;28.20;99.90;;;;;;5077368;28;20531;-71
2021/07/14 11:48:41;;;;;;;5.50;5.10;;;28.40;99.90;;;;;;5078089;28;20513;-70
2021/07/14 11:51:19;;;;;;;7.87;5.20;;;28.60;99.90;;;;;;5077765;28;20523;-70
2021/07/14 11:53:47;;;;;;;5.53;5.20;;;28.90;1.00;;;;;;5077331;28;20430;-70
2021/07/14 11:56:17;;;;;;;5.50;5.10;;;29.30;1.00;;;;;;5077176;28;20469;-70
2021/07/14 11:59:12;;;;;;;5.30;4.90;;;29.50;1.00;;;;;;5077298;28;20541;-70
2021/07/14 12:01:46;;;;;;;5.53;5.10;;;29.60;1.00;;;;;;5063766;28;20771;-71
2021/07/14 12:04:13;;;;;;;6.40;5.50;;;29.60;1.00;;;;;;5077737;28;20457;-71
2021/07/14 12:06:42;;;;;;;5.70;5.20;;;29.60;1.00;;;;;;5078148;28;20465;-71
2021/07/14 12:09:26;;;;;;;7.70;5.40;;;29.60;1.00;;;;;;5077985;28;20454;-71
2021/07/14 12:11:55;;;;;;;5.60;5.20;;;29.50;1.00;;;;;;5077898;28;20462;-71
2021/07/14 12:14:24;;;;;;;5.57;5.07;;;29.50;1.00;;;;;;5077319;28;20510;-71
2021/07/14 12:16:54;;;;;;;5.83;5.33;;;29.50;1.00;;;;;;5077481;28;20454;-71
2021/07/14 12:19:22;;;;;;;7.50;5.37;;;29.60;1.00;;;;;;5077434;28;20485;-71
2021/07/14 12:21:49;;;;;;;10.70;4.50;;;29.90;1.00;;;;;;5077847;28;20523;-71
2021/07/14 12:24:31;;;;;;;5.43;4.93;;;30.40;1.00;;;;;;5077806;28;20458;-71
2021/07/14 12:27:07;;;;;;;4.80;4.40;;;31.00;1.00;;;;;;5077387;28;20465;-71
2021/07/14 12:29:34;;;;;;;5.13;4.73;;;31.70;1.00;;;;;;5077195;28;20438;-72
2021/07/14 12:32:04;;;;;;;5.10;4.67;;;32.40;99.90;;;;;;5077109;28;20465;-71
2021/07/14 12:34:32;;;;;;;5.60;5.10;;;32.60;99.90;;;;;;5077169;28;20478;-71
2021/07/14 12:37:00;;;;;;;4.97;4.50;;;32.40;99.90;;;;;;5076688;28;20938;-71
2021/07/14 12:39:29;;;;;;;7.27;4.03;;;32.20;99.90;;;;;;5077160;28;20454;-71
2021/07/14 12:41:57;;;;;;;4.70;4.00;;;32.20;99.90;;;;;;5076909;28;20462;-71
2021/07/14 12:44:25;;;;;;;4.33;4.03;;;32.10;99.90;;;;;;5076827;28;20459;-71
2021/07/14 12:46:52;;;;;;;6.63;4.33;;;32.00;99.90;;;;;;5076559;28;20477;-71